sensor_id;sensor_type;location;lat;lon;timestamp;pressure;altitude;pressure_sealevel;temperature;humidity
21273;BME280;36726;52.328;10.552;2022-08-11T00:01:09;101477.81;;;17.24;61.10
21273;BME280;36726;52.328;10.552;2022-08-11T00:03:44;101471.56;;;17.21;60.90
21273;BME280;36726;52.328;10.552;2022-08-11T00:06:12;101468.00;;;17.19;61.34
21273;BME280;36726;52.328;10.552;2022-08-11T00:08:40;101469.78;;;17.17;61.29
21273;BME280;36726;52.328;10.552;2022-08-11T00:11:08;101472.47;;;17.14;61.58
21273;BME280;36726;52.328;10.552;2022-08-11T00:13:39;101466.22;;;17.10;61.73
21273;BME280;36726;52.328;10.552;2022-08-11T00:16:22;101463.56;;;17.07;62.21
21273;BME280;36726;52.328;10.552;2022-08-11T00:18:51;101465.34;;;17.05;62.23
21273;BME280;36726;52.328;10.552;2022-08-11T00:21:20;101470.69;;;17.02;62.67
21273;BME280;36726;52.328;10.552;2022-08-11T00:24:07;101473.34;;;16.98;62.69
21273;BME280;36726;52.328;10.552;2022-08-11T00:26:35;101471.53;;;16.94;63.05
21273;BME280;36726;52.328;10.552;2022-08-11T00:29:09;101470.66;;;16.90;63.25
21273;BME280;36726;52.328;10.552;2022-08-11T00:31:36;101476.91;;;16.88;63.60
21273;BME280;36726;52.328;10.552;2022-08-11T00:34:09;101477.78;;;16.84;64.13
21273;BME280;36726;52.328;10.552;2022-08-11T00:36:45;101486.69;;;16.81;64.17
21273;BME280;36726;52.328;10.552;2022-08-11T00:39:13;101481.34;;;16.78;64.41
21273;BME280;36726;52.328;10.552;2022-08-11T00:47:20;101484.84;;;16.68;65.42
21273;BME280;36726;52.328;10.552;2022-08-11T00:50:17;101476.84;;;16.64;65.56
21273;BME280;36726;52.328;10.552;2022-08-11T00:53:15;101487.50;;;16.59;65.81
21273;BME280;36726;52.328;10.552;2022-08-11T00:56:13;101485.72;;;16.55;65.93
21273;BME280;36726;52.328;10.552;2022-08-11T00:58:58;101483.94;;;16.52;66.32
21273;BME280;36726;52.328;10.552;2022-08-11T01:02:14;101486.59;;;16.48;66.87
21273;BME280;36726;52.328;10.552;2022-08-11T01:07:40;101487.41;;;16.39;67.68
21273;BME280;36726;52.328;10.552;2022-08-11T01:10:53;101487.41;;;16.35;67.72
21273;BME280;36726;52.328;10.552;2022-08-11T01:19:34;101481.13;;;16.24;67.76
21273;BME280;36726;52.328;10.552;2022-08-11T01:40:17;101478.31;;;15.92;69.96
21273;BME280;36726;52.328;10.552;2022-08-11T01:43:11;101480.94;;;15.89;70.51
21273;BME280;36726;52.328;10.552;2022-08-11T01:46:24;101488.94;;;15.83;70.89
21273;BME280;36726;52.328;10.552;2022-08-11T01:49:07;101488.88;;;15.79;71.08
21273;BME280;36726;52.328;10.552;2022-08-11T01:52:19;101491.53;;;15.76;70.97
21273;BME280;36726;52.328;10.552;2022-08-11T01:55:37;101485.31;;;15.72;70.97
21273;BME280;36726;52.328;10.552;2022-08-11T02:00:52;101488.78;;;15.64;71.41
21273;BME280;36726;52.328;10.552;2022-08-11T02:03:38;101492.34;;;15.60;71.75
21273;BME280;36726;52.328;10.552;2022-08-11T02:06:17;101489.63;;;15.56;71.85
21273;BME280;36726;52.328;10.552;2022-08-11T02:09:44;101496.72;;;15.54;72.45
21273;BME280;36726;52.328;10.552;2022-08-11T02:12:49;101490.47;;;15.52;72.83
21273;BME280;36726;52.328;10.552;2022-08-11T02:15:28;101494.94;;;15.50;72.71
21273;BME280;36726;52.328;10.552;2022-08-11T02:18:07;101496.69;;;15.48;73.10
21273;BME280;36726;52.328;10.552;2022-08-11T02:20:44;101495.78;;;15.45;73.25
21273;BME280;36726;52.328;10.552;2022-08-11T02:23:48;101490.41;;;15.42;73.51
21273;BME280;36726;52.328;10.552;2022-08-11T02:26:41;101489.44;;;15.38;73.86
21273;BME280;36726;52.328;10.552;2022-08-11T02:29:28;101491.19;;;15.33;73.38
21273;BME280;36726;52.328;10.552;2022-08-11T02:32:16;101485.84;;;15.30;73.81
21273;BME280;36726;52.328;10.552;2022-08-11T02:35:27;101491.13;;;15.24;74.08
21273;BME280;36726;52.328;10.552;2022-08-11T02:38:07;101492.84;;;15.19;73.91
21273;BME280;36726;52.328;10.552;2022-08-11T02:40:49;101487.47;;;15.15;74.46
21273;BME280;36726;52.328;10.552;2022-08-11T02:43:44;101488.34;;;15.11;74.33
21273;BME280;36726;52.328;10.552;2022-08-11T02:46:31;101491.84;;;15.07;74.91
21273;BME280;36726;52.328;10.552;2022-08-11T02:52:28;101483.78;;;14.99;75.37
21273;BME280;36726;52.328;10.552;2022-08-11T02:57:52;101481.94;;;14.92;75.91
21273;BME280;36726;52.328;10.552;2022-08-11T03:00:21;101483.69;;;14.90;76.00
21273;BME280;36726;52.328;10.552;2022-08-11T03:03:14;101488.09;;;14.87;75.90
21273;BME280;36726;52.328;10.552;2022-08-11T03:06:08;101487.19;;;14.83;76.17
21273;BME280;36726;52.328;10.552;2022-08-11T03:08:53;101485.34;;;14.81;76.64
21273;BME280;36726;52.328;10.552;2022-08-11T03:11:51;101485.34;;;14.78;76.76
21273;BME280;36726;52.328;10.552;2022-08-11T03:17:31;101492.38;;;14.71;77.02
21273;BME280;36726;52.328;10.552;2022-08-11T03:20:19;101487.00;;;14.70;77.57
21273;BME280;36726;52.328;10.552;2022-08-11T03:22:59;101479.91;;;14.69;77.95
21273;BME280;36726;52.328;10.552;2022-08-11T03:25:43;101479.00;;;14.67;78.06
21273;BME280;36726;52.328;10.552;2022-08-11T03:28:15;101487.84;;;14.64;77.93
21273;BME280;36726;52.328;10.552;2022-08-11T03:31:07;101488.72;;;14.62;78.48
21273;BME280;36726;52.328;10.552;2022-08-11T03:43:16;101486.84;;;14.53;79.32
21273;BME280;36726;52.328;10.552;2022-08-11T03:46:01;101482.38;;;14.50;79.76
21273;BME280;36726;52.328;10.552;2022-08-11T03:48:37;101482.38;;;14.49;79.55
21273;BME280;36726;52.328;10.552;2022-08-11T03:57:21;101485.88;;;14.46;80.78
21273;BME280;36726;52.328;10.552;2022-08-11T04:03:21;101493.84;;;14.45;81.32
21273;BME280;36726;52.328;10.552;2022-08-11T04:11:41;101492.09;;;14.47;81.72
21273;BME280;36726;52.328;10.552;2022-08-11T04:17:56;101488.59;;;14.51;82.16
21273;BME280;36726;52.328;10.552;2022-08-11T04:20:48;101485.06;;;14.52;82.21
21273;BME280;36726;52.328;10.552;2022-08-11T04:23:35;101482.38;;;14.52;82.37
21273;BME280;36726;52.328;10.552;2022-08-11T04:29:34;101483.31;;;14.55;82.82
21273;BME280;36726;52.328;10.552;2022-08-11T04:35:52;101480.72;;;14.60;82.75
21273;BME280;36726;52.328;10.552;2022-08-11T04:38:57;101481.63;;;14.62;83.31
21273;BME280;36726;52.328;10.552;2022-08-11T04:48:01;101483.50;;;14.72;83.61
21273;BME280;36726;52.328;10.552;2022-08-11T04:54:21;101487.19;;;14.83;83.67
21273;BME280;36726;52.328;10.552;2022-08-11T04:57:24;101482.78;;;14.88;83.59
21273;BME280;36726;52.328;10.552;2022-08-11T05:00:16;101487.28;;;14.95;84.06
21273;BME280;36726;52.328;10.552;2022-08-11T05:06:14;101484.75;;;15.09;84.30
21273;BME280;36726;52.328;10.552;2022-08-11T05:09:06;101488.38;;;15.15;84.46
21273;BME280;36726;52.328;10.552;2022-08-11T05:11:51;101482.19;;;15.21;84.32
21273;BME280;36726;52.328;10.552;2022-08-11T05:14:37;101483.16;;;15.29;84.48
21273;BME280;36726;52.328;10.552;2022-08-11T05:17:33;101485.91;;;15.38;84.42
21273;BME280;36726;52.328;10.552;2022-08-11T05:20:23;101489.53;;;15.47;84.63
21273;BME280;36726;52.328;10.552;2022-08-11T05:23:10;101483.38;;;15.54;84.57
21273;BME280;36726;52.328;10.552;2022-08-11T05:25:58;101480.78;;;15.64;84.56
21273;BME280;36726;52.328;10.552;2022-08-11T05:29:27;101488.88;;;15.76;84.62
21273;BME280;36726;52.328;10.552;2022-08-11T05:32:22;101491.59;;;15.86;84.03
21273;BME280;36726;52.328;10.552;2022-08-11T05:35:08;101481.88;;;15.96;84.06
21273;BME280;36726;52.328;10.552;2022-08-11T05:37:55;101488.16;;;16.07;84.16
21273;BME280;36726;52.328;10.552;2022-08-11T05:40:49;101482.84;;;16.14;83.64
21273;BME280;36726;52.328;10.552;2022-08-11T05:43:41;101490.03;;;16.23;83.48
21273;BME280;36726;52.328;10.552;2022-08-11T05:46:48;101482.94;;;16.34;83.43
21273;BME280;36726;52.328;10.552;2022-08-11T05:49:34;101483.88;;;16.42;83.76
21273;BME280;36726;52.328;10.552;2022-08-11T05:52:25;101477.69;;;16.49;83.22
21273;BME280;36726;52.328;10.552;2022-08-11T05:55:15;101487.50;;;16.56;83.31
21273;BME280;36726;52.328;10.552;2022-08-11T05:58:03;101483.97;;;16.65;83.28
21273;BME280;36726;52.328;10.552;2022-08-11T06:00:31;101483.97;;;16.74;83.42
21273;BME280;36726;52.328;10.552;2022-08-11T06:03:07;101486.69;;;16.81;83.26
21273;BME280;36726;52.328;10.552;2022-08-11T06:05:37;101485.81;;;16.90;83.02
21273;BME280;36726;52.328;10.552;2022-08-11T06:08:11;101485.81;;;16.99;83.03
21273;BME280;36726;52.328;10.552;2022-08-11T06:10:42;101492.06;;;17.07;82.87
21273;BME280;36726;52.328;10.552;2022-08-11T06:13:14;101492.97;;;17.15;82.68
21273;BME280;36726;52.328;10.552;2022-08-11T06:15:48;101489.41;;;17.23;82.24
21273;BME280;36726;52.328;10.552;2022-08-11T06:18:17;101493.84;;;17.33;82.26
21273;BME280;36726;52.328;10.552;2022-08-11T06:20:53;101491.19;;;17.42;82.14
21273;BME280;36726;52.328;10.552;2022-08-11T06:23:30;101484.09;;;17.52;81.88
21273;BME280;36726;52.328;10.552;2022-08-11T06:25:57;101496.53;;;17.62;81.63
21273;BME280;36726;52.328;10.552;2022-08-11T06:28:32;101484.06;;;17.72;81.41
21273;BME280;36726;52.328;10.552;2022-08-11T06:31:09;101487.63;;;17.80;81.25
21273;BME280;36726;52.328;10.552;2022-08-11T06:42:04;101498.22;;;18.17;79.46
21273;BME280;36726;52.328;10.552;2022-08-11T06:44:42;101496.38;;;18.30;79.19
21273;BME280;36726;52.328;10.552;2022-08-11T06:47:14;101493.66;;;18.40;78.72
21273;BME280;36726;52.328;10.552;2022-08-11T06:49:44;101493.66;;;18.49;78.27
21273;BME280;36726;52.328;10.552;2022-08-11T06:52:35;101493.59;;;18.58;77.72
21273;BME280;36726;52.328;10.552;2022-08-11T06:55:22;101496.25;;;18.68;77.62
21273;BME280;36726;52.328;10.552;2022-08-11T06:58:27;101497.09;;;18.76;76.71
21273;BME280;36726;52.328;10.552;2022-08-11T07:01:17;101497.91;;;18.87;76.58
21273;BME280;36726;52.328;10.552;2022-08-11T07:03:53;101496.03;;;18.98;76.04
21273;BME280;36726;52.328;10.552;2022-08-11T07:10:12;101495.03;;;19.15;74.25
21273;BME280;36726;52.328;10.552;2022-08-11T07:13:04;101494.97;;;19.26;73.88
21273;BME280;36726;52.328;10.552;2022-08-11T07:16:15;101495.78;;;19.38;73.27
21273;BME280;36726;52.328;10.552;2022-08-11T07:18:50;101496.59;;;19.46;72.15
21273;BME280;36726;52.328;10.552;2022-08-11T07:21:42;101491.13;;;19.55;71.91
21273;BME280;36726;52.328;10.552;2022-08-11T07:24:56;101497.31;;;19.65;71.44
21273;BME280;36726;52.328;10.552;2022-08-11T07:27:44;101489.16;;;19.76;70.74
21273;BME280;36726;52.328;10.552;2022-08-11T07:30:31;101487.25;;;19.87;70.64
21273;BME280;36726;52.328;10.552;2022-08-11T07:33:01;101488.09;;;19.95;70.66
21273;BME280;36726;52.328;10.552;2022-08-11T07:35:32;101488.00;;;20.01;70.60
21273;BME280;36726;52.328;10.552;2022-08-11T07:38:03;101486.09;;;20.10;70.77
21273;BME280;36726;52.328;10.552;2022-08-11T07:40:33;101486.94;;;20.17;70.28
21273;BME280;36726;52.328;10.552;2022-08-11T07:43:02;101493.13;;;20.25;69.88
21273;BME280;36726;52.328;10.552;2022-08-11T07:45:30;101483.16;;;20.33;69.58
21273;BME280;36726;52.328;10.552;2022-08-11T07:48:16;101487.56;;;20.41;68.42
21273;BME280;36726;52.328;10.552;2022-08-11T07:51:03;101481.09;;;20.53;68.00
21273;BME280;36726;52.328;10.552;2022-08-11T07:53:50;101476.47;;;20.64;67.44
21273;BME280;36726;52.328;10.552;2022-08-11T07:56:34;101488.91;;;20.73;67.54
21273;BME280;36726;52.328;10.552;2022-08-11T07:59:21;101486.09;;;20.80;67.20
21273;BME280;36726;52.328;10.552;2022-08-11T08:02:38;101486.78;;;20.94;65.67
21273;BME280;36726;52.328;10.552;2022-08-11T08:05:24;101491.16;;;21.04;65.44
21273;BME280;36726;52.328;10.552;2022-08-11T08:08:11;101486.47;;;21.17;65.44
21273;BME280;36726;52.328;10.552;2022-08-11T08:10:59;101489.91;;;21.28;64.62
21273;BME280;36726;52.328;10.552;2022-08-11T08:13:53;101489.75;;;21.37;63.23
21273;BME280;36726;52.328;10.552;2022-08-11T08:16:39;101486.94;;;21.44;62.26
21273;BME280;36726;52.328;10.552;2022-08-11T08:19:25;101486.75;;;21.52;61.09
21273;BME280;36726;52.328;10.552;2022-08-11T08:21:53;101492.03;;;21.59;59.70
21273;BME280;36726;52.328;10.552;2022-08-11T08:24:31;101498.06;;;21.72;59.88
21273;BME280;36726;52.328;10.552;2022-08-11T08:26:58;101491.63;;;21.84;59.05
21273;BME280;36726;52.328;10.552;2022-08-11T08:29:33;101488.78;;;21.91;58.79
21273;BME280;36726;52.328;10.552;2022-08-11T08:32:19;101478.72;;;22.01;58.28
21273;BME280;36726;52.328;10.552;2022-08-11T08:34:51;101478.53;;;22.10;57.23
21273;BME280;36726;52.328;10.552;2022-08-11T08:37:21;101478.34;;;22.20;56.14
21273;BME280;36726;52.328;10.552;2022-08-11T08:40:09;101479.88;;;22.32;56.16
21273;BME280;36726;52.328;10.552;2022-08-11T08:42:49;101477.91;;;22.40;56.08
21273;BME280;36726;52.328;10.552;2022-08-11T08:45:19;101480.34;;;22.52;54.40
21273;BME280;36726;52.328;10.552;2022-08-11T08:48:01;101470.34;;;22.60;53.82
21273;BME280;36726;52.328;10.552;2022-08-11T08:50:32;101479.03;;;22.71;53.74
21273;BME280;36726;52.328;10.552;2022-08-11T08:53:20;101464.34;;;22.84;53.56
21273;BME280;36726;52.328;10.552;2022-08-11T08:55:49;101466.03;;;22.90;52.31
21273;BME280;36726;52.328;10.552;2022-08-11T08:58:19;101464.09;;;22.96;51.84
21273;BME280;36726;52.328;10.552;2022-08-11T09:00:49;101464.81;;;23.03;51.82
21273;BME280;36726;52.328;10.552;2022-08-11T09:03:17;101459.16;;;23.13;51.63
21273;BME280;36726;52.328;10.552;2022-08-11T09:06:05;101460.81;;;23.19;49.97
21273;BME280;36726;52.328;10.552;2022-08-11T09:08:33;101461.50;;;23.28;50.63
21273;BME280;36726;52.328;10.552;2022-08-11T09:11:03;101465.78;;;23.37;50.37
21273;BME280;36726;52.328;10.552;2022-08-11T09:13:51;101463.91;;;23.40;49.96
21273;BME280;36726;52.328;10.552;2022-08-11T09:16:32;101460.88;;;23.52;49.82
21273;BME280;36726;52.328;10.552;2022-08-11T09:18:59;101453.56;;;23.57;49.99
21273;BME280;36726;52.328;10.552;2022-08-11T09:21:27;101458.78;;;23.63;49.29
21273;BME280;36726;52.328;10.552;2022-08-11T09:24:14;101445.97;;;23.72;49.17
21273;BME280;36726;52.328;10.552;2022-08-11T09:27:06;101451.13;;;23.81;48.42
21273;BME280;36726;52.328;10.552;2022-08-11T09:29:34;101453.63;;;23.88;47.90
21273;BME280;36726;52.328;10.552;2022-08-11T09:32:03;101454.31;;;23.95;47.75
21273;BME280;36726;52.328;10.552;2022-08-11T09:34:33;101450.63;;;23.99;47.51
21273;BME280;36726;52.328;10.552;2022-08-11T09:37:02;101449.50;;;24.07;47.80
21273;BME280;36726;52.328;10.552;2022-08-11T09:40:10;101451.88;;;24.18;46.87
21273;BME280;36726;52.328;10.552;2022-08-11T09:43:00;101457.25;;;24.19;45.85
21273;BME280;36726;52.328;10.552;2022-08-11T09:45:49;101446.31;;;24.24;45.78
21273;BME280;36726;52.328;10.552;2022-08-11T09:48:18;101444.19;;;24.35;45.70
21273;BME280;36726;52.328;10.552;2022-08-11T09:50:48;101434.09;;;24.40;45.10
21273;BME280;36726;52.328;10.552;2022-08-11T09:53:17;101433.88;;;24.47;44.95
21273;BME280;36726;52.328;10.552;2022-08-11T09:56:08;101434.50;;;24.57;44.75
21273;BME280;36726;52.328;10.552;2022-08-11T09:58:54;101428.06;;;24.59;43.09
21273;BME280;36726;52.328;10.552;2022-08-11T10:01:22;101424.19;;;24.68;43.71
21273;BME280;36726;52.328;10.552;2022-08-11T10:04:12;101415.91;;;24.74;44.42
21273;BME280;36726;52.328;10.552;2022-08-11T10:06:44;101414.91;;;24.78;43.77
21273;BME280;36726;52.328;10.552;2022-08-11T10:09:47;101405.69;;;24.84;43.27
21273;BME280;36726;52.328;10.552;2022-08-11T10:12:33;101399.28;;;24.86;43.11
21273;BME280;36726;52.328;10.552;2022-08-11T10:15:06;101396.44;;;24.91;42.77
21273;BME280;36726;52.328;10.552;2022-08-11T10:17:55;101388.91;;;25.00;42.70
21273;BME280;36726;52.328;10.552;2022-08-11T10:20:44;101392.22;;;25.08;43.75
21273;BME280;36726;52.328;10.552;2022-08-11T10:23:13;101397.50;;;25.13;42.40
21273;BME280;36726;52.328;10.552;2022-08-11T10:25:58;101394.63;;;25.17;41.48
21273;BME280;36726;52.328;10.552;2022-08-11T10:28:44;101390.88;;;25.21;40.24
21273;BME280;36726;52.328;10.552;2022-08-11T10:31:30;101391.59;;;25.26;40.40
21273;BME280;36726;52.328;10.552;2022-08-11T10:34:26;101395.03;;;25.31;40.75
21273;BME280;36726;52.328;10.552;2022-08-11T10:36:55;101396.53;;;25.41;40.96
21273;BME280;36726;52.328;10.552;2022-08-11T10:39:22;101396.47;;;25.43;40.36
21273;BME280;36726;52.328;10.552;2022-08-11T10:41:50;101378.34;;;25.45;40.24
21273;BME280;36726;52.328;10.552;2022-08-11T10:44:57;101378.28;;;25.46;40.22
21273;BME280;36726;52.328;10.552;2022-08-11T10:47:24;101377.25;;;25.50;39.89
21273;BME280;36726;52.328;10.552;2022-08-11T10:50:07;101377.13;;;25.53;40.23
21273;BME280;36726;52.328;10.552;2022-08-11T10:52:54;101376.91;;;25.59;40.49
21273;BME280;36726;52.328;10.552;2022-08-11T10:55:42;101373.94;;;25.67;40.65
21273;BME280;36726;52.328;10.552;2022-08-11T10:58:32;101375.63;;;25.70;40.06
21273;BME280;36726;52.328;10.552;2022-08-11T11:01:27;101375.47;;;25.74;40.36
21273;BME280;36726;52.328;10.552;2022-08-11T11:04:03;101367.16;;;25.79;40.21
21273;BME280;36726;52.328;10.552;2022-08-11T11:07:02;101353.47;;;25.82;39.22
21273;BME280;36726;52.328;10.552;2022-08-11T11:09:31;101361.31;;;25.89;39.07
21273;BME280;36726;52.328;10.552;2022-08-11T11:12:14;101357.34;;;25.99;39.33
21273;BME280;36726;52.328;10.552;2022-08-11T11:15:04;101358.13;;;26.03;39.16
21273;BME280;36726;52.328;10.552;2022-08-11T11:18:20;101349.88;;;26.06;38.50
21273;BME280;36726;52.328;10.552;2022-08-11T11:21:12;101355.09;;;26.12;38.20
21273;BME280;36726;52.328;10.552;2022-08-11T11:29:32;101346.38;;;26.25;37.84
21273;BME280;36726;52.328;10.552;2022-08-11T11:37:28;101344.50;;;26.27;37.16
21273;BME280;36726;52.328;10.552;2022-08-11T11:39:56;101339.75;;;26.34;37.51
21273;BME280;36726;52.328;10.552;2022-08-11T11:42:24;101345.03;;;26.37;37.70
21273;BME280;36726;52.328;10.552;2022-08-11T11:44:51;101339.47;;;26.40;37.83
21273;BME280;36726;52.328;10.552;2022-08-11T11:47:21;101334.81;;;26.43;37.96
21273;BME280;36726;52.328;10.552;2022-08-11T11:49:49;101337.09;;;26.54;37.94
21273;BME280;36726;52.328;10.552;2022-08-11T11:52:18;101338.63;;;26.61;37.32
21273;BME280;36726;52.328;10.552;2022-08-11T11:54:46;101341.13;;;26.65;36.89
21273;BME280;36726;52.328;10.552;2022-08-11T11:57:19;101336.50;;;26.69;36.91
21273;BME280;36726;52.328;10.552;2022-08-11T12:00:07;101338.28;;;26.70;36.68
21273;BME280;36726;52.328;10.552;2022-08-11T12:03:02;101324.66;;;26.72;36.56
21273;BME280;36726;52.328;10.552;2022-08-11T12:05:32;101325.41;;;26.75;36.73
21273;BME280;36726;52.328;10.552;2022-08-11T12:08:00;101325.31;;;26.77;36.86
21273;BME280;36726;52.328;10.552;2022-08-11T12:10:46;101319.69;;;26.81;36.25
21273;BME280;36726;52.328;10.552;2022-08-11T12:13:15;101316.03;;;26.82;36.61
21273;BME280;36726;52.328;10.552;2022-08-11T12:16:01;101314.16;;;26.84;36.11
21273;BME280;36726;52.328;10.552;2022-08-11T12:18:51;101305.53;;;26.95;35.70
21273;BME280;36726;52.328;10.552;2022-08-11T12:21:20;101301.75;;;26.99;34.99
21273;BME280;36726;52.328;10.552;2022-08-11T12:23:47;101292.78;;;26.97;34.23
21273;BME280;36726;52.328;10.552;2022-08-11T12:26:33;101301.75;;;26.99;34.66
21273;BME280;36726;52.328;10.552;2022-08-11T12:29:39;101290.59;;;27.05;33.90
21273;BME280;36726;52.328;10.552;2022-08-11T12:32:09;101290.50;;;27.08;34.73
21273;BME280;36726;52.328;10.552;2022-08-11T12:34:36;101293.13;;;27.09;34.49
21273;BME280;36726;52.328;10.552;2022-08-11T12:37:03;101284.84;;;27.12;33.83
21273;BME280;36726;52.328;10.552;2022-08-11T12:39:45;101290.09;;;27.17;34.44
21273;BME280;36726;52.328;10.552;2022-08-11T12:42:51;101277.09;;;27.23;34.09
21273;BME280;36726;52.328;10.552;2022-08-11T12:45:51;101286.00;;;27.27;33.85
21273;BME280;36726;52.328;10.552;2022-08-11T12:48:20;101275.91;;;27.30;34.13
21273;BME280;36726;52.328;10.552;2022-08-11T12:51:31;101264.91;;;27.33;34.41
21273;BME280;36726;52.328;10.552;2022-08-11T12:58:28;101253.75;;;27.39;34.00
21273;BME280;36726;52.328;10.552;2022-08-11T13:00:55;101246.28;;;27.44;33.60
21273;BME280;36726;52.328;10.552;2022-08-11T13:03:40;101245.19;;;27.48;33.55
21273;BME280;36726;52.328;10.552;2022-08-11T13:06:26;101251.28;;;27.53;32.74
21273;BME280;36726;52.328;10.552;2022-08-11T13:08:54;101248.38;;;27.58;32.56
21273;BME280;36726;52.328;10.552;2022-08-11T13:11:27;101235.53;;;27.61;32.31
21273;BME280;36726;52.328;10.552;2022-08-11T13:14:24;101240.72;;;27.66;32.29
21273;BME280;36726;52.328;10.552;2022-08-11T13:16:51;101242.44;;;27.69;32.26
21273;BME280;36726;52.328;10.552;2022-08-11T13:19:40;101238.69;;;27.71;32.32
21273;BME280;36726;52.328;10.552;2022-08-11T13:22:12;101235.97;;;27.71;32.13
21273;BME280;36726;52.328;10.552;2022-08-11T13:24:40;101234.94;;;27.74;32.22
21273;BME280;36726;52.328;10.552;2022-08-11T13:27:07;101235.75;;;27.76;32.06
21273;BME280;36726;52.328;10.552;2022-08-11T13:29:40;101231.13;;;27.78;32.60
21273;BME280;36726;52.328;10.552;2022-08-11T13:32:08;101226.25;;;27.84;33.08
21273;BME280;36726;52.328;10.552;2022-08-11T13:34:35;101226.06;;;27.89;32.64
21273;BME280;36726;52.328;10.552;2022-08-11T13:37:09;101214.03;;;27.94;32.66
21273;BME280;36726;52.328;10.552;2022-08-11T13:39:39;101222.13;;;27.96;31.93
21273;BME280;36726;52.328;10.552;2022-08-11T13:42:09;101216.44;;;28.00;32.38
21273;BME280;36726;52.328;10.552;2022-08-11T13:44:36;101215.41;;;28.03;31.84
21273;BME280;36726;52.328;10.552;2022-08-11T13:47:05;101206.28;;;28.04;31.92
21273;BME280;36726;52.328;10.552;2022-08-11T13:49:35;101208.72;;;28.10;32.95
21273;BME280;36726;52.328;10.552;2022-08-11T13:52:09;101208.44;;;28.16;33.16
21273;BME280;36726;52.328;10.552;2022-08-11T13:54:39;101213.88;;;28.16;32.13
21273;BME280;36726;52.328;10.552;2022-08-11T13:57:09;101205.53;;;28.19;32.74
21273;BME280;36726;52.328;10.552;2022-08-11T13:59:58;101205.38;;;28.22;32.13
21273;BME280;36726;52.328;10.552;2022-08-11T14:02:52;101199.72;;;28.26;31.64
21273;BME280;36726;52.328;10.552;2022-08-11T14:05:36;101187.81;;;28.29;31.99
21273;BME280;36726;52.328;10.552;2022-08-11T14:08:11;101198.53;;;28.32;31.92
21273;BME280;36726;52.328;10.552;2022-08-11T14:11:01;101187.50;;;28.35;31.14
21273;BME280;36726;52.328;10.552;2022-08-11T14:14:09;101188.28;;;28.37;31.71
21273;BME280;36726;52.328;10.552;2022-08-11T14:16:41;101174.69;;;28.37;30.79
21273;BME280;36726;52.328;10.552;2022-08-11T14:19:11;101177.19;;;28.41;30.82
21273;BME280;36726;52.328;10.552;2022-08-11T14:21:41;101180.38;;;28.49;31.69
21273;BME280;36726;52.328;10.552;2022-08-11T14:24:38;101183.78;;;28.54;31.16
21273;BME280;36726;52.328;10.552;2022-08-11T14:27:10;101183.78;;;28.54;31.27
21273;BME280;36726;52.328;10.552;2022-08-11T14:29:58;101182.84;;;28.55;31.05
21273;BME280;36726;52.328;10.552;2022-08-11T14:32:25;101180.03;;;28.57;30.59
21273;BME280;36726;52.328;10.552;2022-08-11T14:34:53;101181.63;;;28.61;30.87
21273;BME280;36726;52.328;10.552;2022-08-11T14:37:21;101168.88;;;28.61;30.75
21273;BME280;36726;52.328;10.552;2022-08-11T14:39:52;101175.13;;;28.63;30.42
21273;BME280;36726;52.328;10.552;2022-08-11T14:42:28;101177.06;;;28.61;30.96
21273;BME280;36726;52.328;10.552;2022-08-11T14:45:15;101172.50;;;28.62;30.92
21273;BME280;36726;52.328;10.552;2022-08-11T14:48:21;101172.66;;;28.59;30.59
21273;BME280;36726;52.328;10.552;2022-08-11T14:50:48;101170.88;;;28.58;30.95
21273;BME280;36726;52.328;10.552;2022-08-11T14:53:15;101159.69;;;28.64;31.05
21273;BME280;36726;52.328;10.552;2022-08-11T14:55:44;101166.75;;;28.68;30.96
21273;BME280;36726;52.328;10.552;2022-08-11T14:58:31;101170.28;;;28.70;30.34
21273;BME280;36726;52.328;10.552;2022-08-11T15:01:00;101166.44;;;28.74;30.58
21273;BME280;36726;52.328;10.552;2022-08-11T15:03:30;101152.88;;;28.73;29.68
21273;BME280;36726;52.328;10.552;2022-08-11T15:06:00;101144.66;;;28.74;30.71
21273;BME280;36726;52.328;10.552;2022-08-11T15:08:32;101154.56;;;28.75;30.21
21273;BME280;36726;52.328;10.552;2022-08-11T15:11:21;101146.31;;;28.77;30.68
21273;BME280;36726;52.328;10.552;2022-08-11T15:14:08;101150.72;;;28.79;30.99
21273;BME280;36726;52.328;10.552;2022-08-11T15:16:38;101142.28;;;28.84;30.36
21273;BME280;36726;52.328;10.552;2022-08-11T15:19:25;101143.00;;;28.87;30.26
21273;BME280;36726;52.328;10.552;2022-08-11T15:22:02;101143.72;;;28.91;30.56
21273;BME280;36726;52.328;10.552;2022-08-11T15:24:53;101146.22;;;28.95;30.35
21273;BME280;36726;52.328;10.552;2022-08-11T15:27:20;101146.84;;;29.00;30.02
21273;BME280;36726;52.328;10.552;2022-08-11T15:30:07;101137.38;;;29.07;29.81
21273;BME280;36726;52.328;10.552;2022-08-11T15:33:02;101130.16;;;29.23;29.67
21273;BME280;36726;52.328;10.552;2022-08-11T15:35:51;101126.50;;;29.55;30.28
21273;BME280;36726;52.328;10.552;2022-08-11T15:38:48;101126.25;;;30.38;28.88
21273;BME280;36726;52.328;10.552;2022-08-11T15:41:23;101126.16;;;31.96;27.19
21273;BME280;36726;52.328;10.552;2022-08-11T15:44:12;101124.84;;;33.80;25.37
21273;BME280;36726;52.328;10.552;2022-08-11T15:47:22;101120.75;;;35.26;23.15
21273;BME280;36726;52.328;10.552;2022-08-11T15:49:53;101126.81;;;36.18;22.44
21273;BME280;36726;52.328;10.552;2022-08-11T15:52:45;101128.81;;;37.20;22.28
21273;BME280;36726;52.328;10.552;2022-08-11T15:55:15;101134.22;;;38.22;21.92